Flight Track Log - Related Links

Times and Time Zones

All times are in EDT time to prevent confusion due to time zone crossing. See the ASQ5421 flight status page for this flight to view local times or setup timezone preferences in your user account.

Time Position Orientation Groundspeed Altitude Reporting Facility
EDT Latitude Longitude Course Direction KTS MPH feet Rate Location/Type
Mon 11:24:41 AM 33.6333 -84.4667 270° West 166 191 2,500  Level Atlanta TRACON
Mon 11:26:41 AM 33.6333 -84.6333 270° West 255 293 7,600 1,751 Climbing Atlanta TRACON
Mon 11:28:00 AM 33.5317 -84.5695 152° Southeast  Level Estimated
Mon 11:28:58 AM 33.4753 -84.6914 152° Southeast 318 366 10,000  Level Atlanta Center
Mon 11:29:58 AM 33.3794 -84.6633 166° South 346 398 10,100 1,150 Climbing Atlanta Center
Mon 11:30:58 AM 33.3150 -84.5858 135° Southeast 349 402 12,300 2,200 Climbing Atlanta Center
Mon 11:31:58 AM 33.2444 -84.4933 132° Southeast 370 426 14,500 2,100 Climbing Atlanta Center
Mon 11:32:58 AM 33.1717 -84.3986 133° Southeast 383 441 16,500 1,900 Climbing Atlanta Center
Mon 11:33:58 AM 33.0989 -84.3067 133° Southeast 383 441 18,300 1,800 Climbing Atlanta Center
Mon 11:34:58 AM 33.0281 -84.2147 133° Southeast 383 441 20,100 1,650 Climbing Atlanta Center
Mon 11:35:58 AM 32.9383 -84.1478 148° Southeast 371 427 21,600 1,500 Climbing Atlanta Center
Mon 11:36:58 AM 32.8383 -84.1131 164° South 371 427 23,100 1,350 Climbing Atlanta Center
Mon 11:37:58 AM 32.7422 -84.0686 159° South 377 434 24,300 850 Climbing Atlanta Center
Mon 11:40:00 AM 32.5757 -83.9968 160° South  Level FlightAware Approximate
Mon 11:40:58 AM 32.4186 -83.9381 160° South 407 468 26,500  Level Atlanta Center
Mon 11:43:00 AM 32.2534 -83.8657 160° South  Level FlightAware Approximate
Mon 11:44:02 AM 32.0611 -83.7897 160° South 431 496 27,000  Level Jacksonville Center
Mon 11:46:02 AM 31.8528 -83.6997 160° South 407 468 27,000  Level Jacksonville Center
Mon 11:47:02 AM 31.7467 -83.6644 164° South 407 468 27,000  Level Jacksonville Center
Mon 11:49:02 AM 31.5486 -83.5850 161° South 394 453 27,000  Level Jacksonville Center
Mon 11:50:02 AM 31.4486 -83.5478 162° South 394 453 27,000 -250 Level Jacksonville Center
Mon 11:51:02 AM 31.3444 -83.5056 161° South 394 453 26,500 -750 Descending Jacksonville Center
Mon 11:52:02 AM 31.2383 -83.4636 161° South 401 461 25,500 -750 Descending Jacksonville Center
Mon 11:53:02 AM 31.1319 -83.4192 160° South 406 467 25,000 -250 Descending Jacksonville Center
Mon 11:54:02 AM 31.0256 -83.3775 161° South 406 467 25,000 -500 Level Jacksonville Center
Mon 11:56:00 AM 30.8542 -83.3041 160° South  Level FlightAware Approximate
Mon 11:57:02 AM 30.7044 -83.2114 160° South 401 461 23,000  Level Jacksonville Center
Mon 11:59:02 AM 30.5253 -83.0444 141° Southeast 413 475 23,000 -925 Level Jacksonville Center
Mon 12:01:02 PM 30.3522 -82.8831 141° Southeast 413 475 19,300 -2,267 Descending Jacksonville Center
Mon 12:02:02 PM 30.2622 -82.8011 142° Southeast 413 475 16,200 -3,200 Descending Jacksonville Center
Mon 12:03:02 PM 30.1767 -82.7194 140° Southeast 413 475 12,900 -3,306 Descending Jacksonville Center
Mon 12:03:40 PM 30.1222 -82.6742 144° Southeast 382 440 10,800 -2,400 Descending Jacksonville Center
Mon 12:04:02 PM 30.0950 -82.6453 137° Southeast 395 455 10,500 -1,189 Descending Jacksonville Center
Mon 12:05:31 PM 29.9947 -82.5569 143° Southeast 299 344 8,600 -1,360 Descending Jacksonville Center
Mon 12:06:32 PM 29.9319 -82.4994 142° Southeast 289 333 7,100 -1,516 Descending Jacksonville Center
Mon 12:07:02 PM 29.8983 -82.4683 141° Southeast 302 348 6,300 -1,533 Descending Jacksonville Center
Mon 12:08:02 PM 29.8356 -82.4089 141° Southeast 290 334 4,800 -1,000 Descending Jacksonville Center
Mon 12:09:02 PM 29.7811 -82.3567 140° Southeast 284 327 4,300 -480 Descending Jacksonville Center
Mon 12:09:42 PM 29.7475 -82.3303 146° Southeast 219 252 4,000 -1,067 Descending Jacksonville Center
Mon 12:11:00 PM 29.6901 -82.2718 147° Southeast  Level Estimated
Mon 12:11:45 PM 29.7136 -82.2133 147° Southeast 177 204 1,400  Level Jacksonville Center
Mon 12:13:00 PM 29.6833 -82.2667 147° Southeast  Level FlightAware Approximate
Mon 12:20:00 PM 29.6901 -82.2718 147° Southeast  Level Estimated
Mon 12:21:00 PM 29.6901 -82.2718 147° Southeast  Level Estimated
Mon 12:22:00 PM 29.6901 -82.2718 147° Southeast  Level Estimated

Login

Don't have an account? Register now (free) for customized features, flight alerts, and more!